sensor_id;sensor_type;location;lat;lon;timestamp;P1;durP1;ratioP1;P2;durP2;ratioP2
10059;SDS011;5069;49.306;8.636;2022-10-16T00:07:08;1.40;;;1.20;;
10059;SDS011;5069;49.306;8.636;2022-10-16T00:11:09;4.93;;;1.43;;
10059;SDS011;5069;49.306;8.636;2022-10-16T00:15:36;2.67;;;1.27;;
10059;SDS011;5069;49.306;8.636;2022-10-16T00:23:22;1.93;;;1.40;;
10059;SDS011;5069;49.306;8.636;2022-10-16T00:26:23;2.40;;;1.30;;
10059;SDS011;5069;49.306;8.636;2022-10-16T00:29:25;2.60;;;1.33;;
10059;SDS011;5069;49.306;8.636;2022-10-16T00:32:26;3.00;;;1.30;;
10059;SDS011;5069;49.306;8.636;2022-10-16T00:35:28;1.77;;;1.17;;
10059;SDS011;5069;49.306;8.636;2022-10-16T00:38:30;3.73;;;1.20;;
10059;SDS011;5069;49.306;8.636;2022-10-16T00:41:32;2.50;;;1.50;;
10059;SDS011;5069;49.306;8.636;2022-10-16T00:44:42;4.40;;;1.27;;
10059;SDS011;5069;49.306;8.636;2022-10-16T00:47:51;5.03;;;1.13;;
10059;SDS011;5069;49.306;8.636;2022-10-16T00:50:55;2.80;;;1.30;;
10059;SDS011;5069;49.306;8.636;2022-10-16T00:53:59;2.80;;;1.10;;
10059;SDS011;5069;49.306;8.636;2022-10-16T00:57:04;1.40;;;1.30;;
10059;SDS011;5069;49.306;8.636;2022-10-16T01:00:08;1.67;;;1.13;;
10059;SDS011;5069;49.306;8.636;2022-10-16T01:03:26;1.60;;;1.40;;
10059;SDS011;5069;49.306;8.636;2022-10-16T01:06:43;6.13;;;1.47;;
10059;SDS011;5069;49.306;8.636;2022-10-16T01:13:32;2.40;;;1.17;;
10059;SDS011;5069;49.306;8.636;2022-10-16T01:16:42;2.20;;;1.30;;
10059;SDS011;5069;49.306;8.636;2022-10-16T01:19:57;1.57;;;1.20;;
10059;SDS011;5069;49.306;8.636;2022-10-16T01:26:35;3.33;;;1.17;;
10059;SDS011;5069;49.306;8.636;2022-10-16T01:32:56;3.97;;;1.67;;
10059;SDS011;5069;49.306;8.636;2022-10-16T01:36:01;1.63;;;1.53;;
10059;SDS011;5069;49.306;8.636;2022-10-16T01:39:08;5.23;;;1.80;;
10059;SDS011;5069;49.306;8.636;2022-10-16T01:42:14;3.60;;;1.50;;
10059;SDS011;5069;49.306;8.636;2022-10-16T01:45:20;3.63;;;1.30;;
10059;SDS011;5069;49.306;8.636;2022-10-16T01:48:22;3.00;;;1.40;;
10059;SDS011;5069;49.306;8.636;2022-10-16T01:51:25;5.10;;;1.50;;
10059;SDS011;5069;49.306;8.636;2022-10-16T01:54:28;4.07;;;1.50;;
10059;SDS011;5069;49.306;8.636;2022-10-16T01:57:33;4.13;;;1.70;;
10059;SDS011;5069;49.306;8.636;2022-10-16T02:00:40;3.13;;;1.47;;
10059;SDS011;5069;49.306;8.636;2022-10-16T02:03:44;2.67;;;1.37;;
10059;SDS011;5069;49.306;8.636;2022-10-16T02:06:47;1.60;;;1.40;;
10059;SDS011;5069;49.306;8.636;2022-10-16T02:09:48;2.20;;;1.37;;
10059;SDS011;5069;49.306;8.636;2022-10-16T02:12:53;5.43;;;1.40;;
10059;SDS011;5069;49.306;8.636;2022-10-16T02:16:00;1.50;;;1.40;;
10059;SDS011;5069;49.306;8.636;2022-10-16T02:19:02;3.57;;;1.70;;
10059;SDS011;5069;49.306;8.636;2022-10-16T02:22:04;3.00;;;1.50;;
10059;SDS011;5069;49.306;8.636;2022-10-16T02:25:19;2.30;;;1.47;;
10059;SDS011;5069;49.306;8.636;2022-10-16T02:28:31;3.50;;;1.23;;
10059;SDS011;5069;49.306;8.636;2022-10-16T02:31:43;2.50;;;1.33;;
10059;SDS011;5069;49.306;8.636;2022-10-16T02:34:49;3.33;;;1.40;;
10059;SDS011;5069;49.306;8.636;2022-10-16T02:37:52;2.47;;;1.43;;
10059;SDS011;5069;49.306;8.636;2022-10-16T02:40:55;3.20;;;1.43;;
10059;SDS011;5069;49.306;8.636;2022-10-16T02:43:57;6.13;;;1.70;;
10059;SDS011;5069;49.306;8.636;2022-10-16T02:46:58;5.20;;;1.73;;
10059;SDS011;5069;49.306;8.636;2022-10-16T02:50:00;3.17;;;1.63;;
10059;SDS011;5069;49.306;8.636;2022-10-16T02:53:02;7.07;;;2.10;;
10059;SDS011;5069;49.306;8.636;2022-10-16T02:56:03;3.17;;;1.70;;
10059;SDS011;5069;49.306;8.636;2022-10-16T02:59:05;1.70;;;1.60;;
10059;SDS011;5069;49.306;8.636;2022-10-16T03:02:06;1.50;;;1.30;;
10059;SDS011;5069;49.306;8.636;2022-10-16T03:05:08;3.50;;;1.53;;
10059;SDS011;5069;49.306;8.636;2022-10-16T03:08:11;5.13;;;1.50;;
10059;SDS011;5069;49.306;8.636;2022-10-16T03:11:13;2.90;;;1.50;;
10059;SDS011;5069;49.306;8.636;2022-10-16T03:14:14;2.47;;;1.70;;
10059;SDS011;5069;49.306;8.636;2022-10-16T03:17:17;3.77;;;1.73;;
10059;SDS011;5069;49.306;8.636;2022-10-16T03:20:18;3.00;;;1.70;;
10059;SDS011;5069;49.306;8.636;2022-10-16T03:23:20;1.90;;;1.80;;
10059;SDS011;5069;49.306;8.636;2022-10-16T03:26:21;3.93;;;1.77;;
10059;SDS011;5069;49.306;8.636;2022-10-16T03:29:23;2.80;;;1.83;;
10059;SDS011;5069;49.306;8.636;2022-10-16T03:32:24;1.63;;;1.50;;
10059;SDS011;5069;49.306;8.636;2022-10-16T03:35:26;4.80;;;1.47;;
10059;SDS011;5069;49.306;8.636;2022-10-16T03:38:28;2.50;;;1.30;;
10059;SDS011;5069;49.306;8.636;2022-10-16T03:41:29;2.13;;;1.40;;
10059;SDS011;5069;49.306;8.636;2022-10-16T03:44:31;2.90;;;1.37;;
10059;SDS011;5069;49.306;8.636;2022-10-16T03:47:32;6.00;;;1.40;;
10059;SDS011;5069;49.306;8.636;2022-10-16T03:50:34;3.70;;;1.60;;
10059;SDS011;5069;49.306;8.636;2022-10-16T03:53:36;1.53;;;1.40;;
10059;SDS011;5069;49.306;8.636;2022-10-16T03:56:37;1.30;;;1.20;;
10059;SDS011;5069;49.306;8.636;2022-10-16T03:59:39;2.57;;;1.60;;
10059;SDS011;5069;49.306;8.636;2022-10-16T04:02:40;1.67;;;1.57;;
10059;SDS011;5069;49.306;8.636;2022-10-16T04:05:42;1.57;;;1.37;;
10059;SDS011;5069;49.306;8.636;2022-10-16T04:08:44;3.63;;;1.50;;
10059;SDS011;5069;49.306;8.636;2022-10-16T04:11:45;2.53;;;1.57;;
10059;SDS011;5069;49.306;8.636;2022-10-16T04:14:47;3.93;;;1.70;;
10059;SDS011;5069;49.306;8.636;2022-10-16T04:17:48;2.67;;;1.80;;
10059;SDS011;5069;49.306;8.636;2022-10-16T04:20:50;2.80;;;1.50;;
10059;SDS011;5069;49.306;8.636;2022-10-16T04:23:51;3.33;;;1.50;;
10059;SDS011;5069;49.306;8.636;2022-10-16T04:26:53;2.20;;;1.50;;
10059;SDS011;5069;49.306;8.636;2022-10-16T04:29:54;3.10;;;1.50;;
10059;SDS011;5069;49.306;8.636;2022-10-16T04:32:56;5.97;;;1.50;;
10059;SDS011;5069;49.306;8.636;2022-10-16T04:35:58;2.07;;;1.43;;
10059;SDS011;5069;49.306;8.636;2022-10-16T04:39:00;3.07;;;1.50;;
10059;SDS011;5069;49.306;8.636;2022-10-16T04:42:02;5.13;;;1.33;;
10059;SDS011;5069;49.306;8.636;2022-10-16T04:45:04;7.30;;;1.60;;
10059;SDS011;5069;49.306;8.636;2022-10-16T04:48:06;2.07;;;1.77;;
10059;SDS011;5069;49.306;8.636;2022-10-16T04:51:08;2.40;;;1.33;;
10059;SDS011;5069;49.306;8.636;2022-10-16T04:54:09;5.00;;;1.70;;
10059;SDS011;5069;49.306;8.636;2022-10-16T04:57:11;2.77;;;1.37;;
10059;SDS011;5069;49.306;8.636;2022-10-16T05:00:12;1.80;;;1.50;;
10059;SDS011;5069;49.306;8.636;2022-10-16T05:03:14;1.40;;;1.30;;
10059;SDS011;5069;49.306;8.636;2022-10-16T05:06:16;6.47;;;1.70;;
10059;SDS011;5069;49.306;8.636;2022-10-16T05:09:17;3.37;;;1.47;;
10059;SDS011;5069;49.306;8.636;2022-10-16T05:12:19;2.17;;;1.57;;
10059;SDS011;5069;49.306;8.636;2022-10-16T05:15:21;3.40;;;1.60;;
10059;SDS011;5069;49.306;8.636;2022-10-16T05:18:25;1.93;;;1.50;;
10059;SDS011;5069;49.306;8.636;2022-10-16T05:21:27;3.17;;;1.70;;
10059;SDS011;5069;49.306;8.636;2022-10-16T05:24:28;7.70;;;1.80;;
10059;SDS011;5069;49.306;8.636;2022-10-16T05:27:30;3.53;;;1.80;;
10059;SDS011;5069;49.306;8.636;2022-10-16T05:30:31;3.53;;;1.80;;
10059;SDS011;5069;49.306;8.636;2022-10-16T05:33:33;3.20;;;2.03;;
10059;SDS011;5069;49.306;8.636;2022-10-16T05:36:34;2.83;;;1.90;;
10059;SDS011;5069;49.306;8.636;2022-10-16T05:39:36;4.03;;;1.67;;
10059;SDS011;5069;49.306;8.636;2022-10-16T05:42:38;2.63;;;1.50;;
10059;SDS011;5069;49.306;8.636;2022-10-16T05:45:40;3.60;;;1.70;;
10059;SDS011;5069;49.306;8.636;2022-10-16T05:48:41;2.63;;;1.70;;
10059;SDS011;5069;49.306;8.636;2022-10-16T05:51:43;1.97;;;1.50;;
10059;SDS011;5069;49.306;8.636;2022-10-16T05:54:45;6.30;;;1.60;;
10059;SDS011;5069;49.306;8.636;2022-10-16T05:57:46;1.33;;;1.23;;
10059;SDS011;5069;49.306;8.636;2022-10-16T06:01:00;1.40;;;1.30;;
10059;SDS011;5069;49.306;8.636;2022-10-16T06:04:13;4.10;;;1.50;;
10059;SDS011;5069;49.306;8.636;2022-10-16T06:07:14;1.57;;;1.40;;
10059;SDS011;5069;49.306;8.636;2022-10-16T06:10:15;6.33;;;1.60;;
10059;SDS011;5069;49.306;8.636;2022-10-16T06:13:17;6.03;;;1.63;;
10059;SDS011;5069;49.306;8.636;2022-10-16T06:16:19;6.97;;;1.80;;
10059;SDS011;5069;49.306;8.636;2022-10-16T06:19:21;2.23;;;1.30;;
10059;SDS011;5069;49.306;8.636;2022-10-16T06:22:24;5.07;;;1.60;;
10059;SDS011;5069;49.306;8.636;2022-10-16T06:25:25;3.10;;;1.43;;
10059;SDS011;5069;49.306;8.636;2022-10-16T06:28:27;2.10;;;1.57;;
10059;SDS011;5069;49.306;8.636;2022-10-16T06:31:28;3.30;;;1.73;;
10059;SDS011;5069;49.306;8.636;2022-10-16T06:34:32;2.00;;;1.70;;
10059;SDS011;5069;49.306;8.636;2022-10-16T06:37:34;1.80;;;1.50;;
10059;SDS011;5069;49.306;8.636;2022-10-16T06:40:36;2.90;;;2.60;;
10059;SDS011;5069;49.306;8.636;2022-10-16T06:43:37;3.67;;;2.80;;
10059;SDS011;5069;49.306;8.636;2022-10-16T06:46:39;3.17;;;2.87;;
10059;SDS011;5069;49.306;8.636;2022-10-16T06:49:40;3.53;;;2.10;;
10059;SDS011;5069;49.306;8.636;2022-10-16T06:52:42;4.80;;;2.40;;
10059;SDS011;5069;49.306;8.636;2022-10-16T06:55:43;6.50;;;2.80;;
10059;SDS011;5069;49.306;8.636;2022-10-16T06:58:45;4.47;;;2.80;;
10059;SDS011;5069;49.306;8.636;2022-10-16T07:01:47;7.20;;;2.73;;
10059;SDS011;5069;49.306;8.636;2022-10-16T07:04:49;3.23;;;2.47;;
10059;SDS011;5069;49.306;8.636;2022-10-16T07:07:50;3.60;;;2.20;;
10059;SDS011;5069;49.306;8.636;2022-10-16T07:10:59;2.20;;;2.00;;
10059;SDS011;5069;49.306;8.636;2022-10-16T07:14:02;3.70;;;2.50;;
10059;SDS011;5069;49.306;8.636;2022-10-16T07:17:04;3.73;;;2.23;;
10059;SDS011;5069;49.306;8.636;2022-10-16T07:20:05;3.30;;;2.20;;
10059;SDS011;5069;49.306;8.636;2022-10-16T07:23:07;4.97;;;2.30;;
10059;SDS011;5069;49.306;8.636;2022-10-16T07:26:09;3.53;;;2.00;;
10059;SDS011;5069;49.306;8.636;2022-10-16T07:29:12;2.83;;;1.90;;
10059;SDS011;5069;49.306;8.636;2022-10-16T07:32:15;4.10;;;1.70;;
10059;SDS011;5069;49.306;8.636;2022-10-16T07:35:17;2.30;;;2.10;;
10059;SDS011;5069;49.306;8.636;2022-10-16T07:38:19;5.17;;;2.20;;
10059;SDS011;5069;49.306;8.636;2022-10-16T07:41:21;4.40;;;2.53;;
10059;SDS011;5069;49.306;8.636;2022-10-16T07:44:23;5.93;;;3.20;;
10059;SDS011;5069;49.306;8.636;2022-10-16T07:47:24;6.00;;;3.13;;
10059;SDS011;5069;49.306;8.636;2022-10-16T07:50:26;4.53;;;3.20;;
10059;SDS011;5069;49.306;8.636;2022-10-16T07:53:27;4.20;;;3.03;;
10059;SDS011;5069;49.306;8.636;2022-10-16T07:56:30;4.47;;;2.40;;
10059;SDS011;5069;49.306;8.636;2022-10-16T07:59:32;6.57;;;2.20;;
10059;SDS011;5069;49.306;8.636;2022-10-16T08:02:34;3.63;;;2.30;;
10059;SDS011;5069;49.306;8.636;2022-10-16T08:05:35;2.80;;;1.80;;
10059;SDS011;5069;49.306;8.636;2022-10-16T08:08:37;2.67;;;2.37;;
10059;SDS011;5069;49.306;8.636;2022-10-16T08:11:38;4.43;;;2.17;;
10059;SDS011;5069;49.306;8.636;2022-10-16T08:14:40;3.77;;;3.30;;
10059;SDS011;5069;49.306;8.636;2022-10-16T08:17:58;10.53;;;5.63;;
10059;SDS011;5069;49.306;8.636;2022-10-16T08:21:02;12.43;;;8.60;;
10059;SDS011;5069;49.306;8.636;2022-10-16T08:24:04;5.40;;;4.20;;
10059;SDS011;5069;49.306;8.636;2022-10-16T08:27:06;6.67;;;3.70;;
10059;SDS011;5069;49.306;8.636;2022-10-16T08:30:08;4.93;;;3.20;;
10059;SDS011;5069;49.306;8.636;2022-10-16T08:33:10;2.70;;;2.50;;
10059;SDS011;5069;49.306;8.636;2022-10-16T08:36:12;2.93;;;2.73;;
10059;SDS011;5069;49.306;8.636;2022-10-16T08:39:15;2.73;;;2.00;;
10059;SDS011;5069;49.306;8.636;2022-10-16T08:42:23;3.07;;;2.70;;
10059;SDS011;5069;49.306;8.636;2022-10-16T08:49:14;3.33;;;2.50;;
10059;SDS011;5069;49.306;8.636;2022-10-16T08:52:16;4.50;;;2.07;;
10059;SDS011;5069;49.306;8.636;2022-10-16T08:58:30;3.13;;;2.20;;
10059;SDS011;5069;49.306;8.636;2022-10-16T09:01:37;3.30;;;2.00;;
10059;SDS011;5069;49.306;8.636;2022-10-16T09:11:38;7.23;;;3.93;;
10059;SDS011;5069;49.306;8.636;2022-10-16T09:14:57;7.33;;;3.90;;
10059;SDS011;5069;49.306;8.636;2022-10-16T09:18:56;6.87;;;3.30;;
10059;SDS011;5069;49.306;8.636;2022-10-16T09:22:44;3.37;;;2.43;;
10059;SDS011;5069;49.306;8.636;2022-10-16T09:25:53;6.27;;;1.90;;
10059;SDS011;5069;49.306;8.636;2022-10-16T09:29:03;5.07;;;1.40;;
10059;SDS011;5069;49.306;8.636;2022-10-16T09:32:15;1.63;;;1.30;;
10059;SDS011;5069;49.306;8.636;2022-10-16T09:35:21;2.67;;;1.43;;
10059;SDS011;5069;49.306;8.636;2022-10-16T09:38:29;4.70;;;1.80;;
10059;SDS011;5069;49.306;8.636;2022-10-16T09:41:34;3.77;;;1.80;;
10059;SDS011;5069;49.306;8.636;2022-10-16T09:44:38;2.03;;;1.47;;
10059;SDS011;5069;49.306;8.636;2022-10-16T09:48:00;3.00;;;1.40;;
10059;SDS011;5069;49.306;8.636;2022-10-16T09:51:25;2.10;;;1.80;;
10059;SDS011;5069;49.306;8.636;2022-10-16T09:54:55;3.10;;;1.60;;
10059;SDS011;5069;49.306;8.636;2022-10-16T09:58:32;2.50;;;1.60;;
10059;SDS011;5069;49.306;8.636;2022-10-16T10:07:30;4.60;;;1.83;;
10059;SDS011;5069;49.306;8.636;2022-10-16T10:10:41;5.33;;;1.70;;
10059;SDS011;5069;49.306;8.636;2022-10-16T10:13:44;2.87;;;2.07;;
10059;SDS011;5069;49.306;8.636;2022-10-16T10:16:45;3.53;;;1.73;;
10059;SDS011;5069;49.306;8.636;2022-10-16T10:19:49;2.77;;;1.80;;
10059;SDS011;5069;49.306;8.636;2022-10-16T10:22:54;2.90;;;1.57;;
10059;SDS011;5069;49.306;8.636;2022-10-16T10:25:59;4.70;;;2.77;;
10059;SDS011;5069;49.306;8.636;2022-10-16T10:29:20;5.77;;;1.83;;
10059;SDS011;5069;49.306;8.636;2022-10-16T10:36:19;8.00;;;2.00;;
10059;SDS011;5069;49.306;8.636;2022-10-16T10:39:35;6.73;;;2.33;;
10059;SDS011;5069;49.306;8.636;2022-10-16T10:46:06;4.97;;;2.50;;
10059;SDS011;5069;49.306;8.636;2022-10-16T10:53:09;6.50;;;1.60;;
10059;SDS011;5069;49.306;8.636;2022-10-16T10:56:39;3.33;;;1.83;;
10059;SDS011;5069;49.306;8.636;2022-10-16T11:06:31;8.20;;;1.80;;
10059;SDS011;5069;49.306;8.636;2022-10-16T11:09:38;8.13;;;1.60;;
10059;SDS011;5069;49.306;8.636;2022-10-16T11:12:44;5.13;;;1.70;;
10059;SDS011;5069;49.306;8.636;2022-10-16T11:15:50;3.37;;;1.70;;
10059;SDS011;5069;49.306;8.636;2022-10-16T11:19:08;4.10;;;1.33;;
10059;SDS011;5069;49.306;8.636;2022-10-16T11:22:23;1.47;;;1.30;;
10059;SDS011;5069;49.306;8.636;2022-10-16T11:25:32;3.53;;;1.70;;
10059;SDS011;5069;49.306;8.636;2022-10-16T11:28:37;3.00;;;1.63;;
10059;SDS011;5069;49.306;8.636;2022-10-16T11:31:46;2.77;;;1.30;;
10059;SDS011;5069;49.306;8.636;2022-10-16T11:35:02;1.90;;;1.50;;
10059;SDS011;5069;49.306;8.636;2022-10-16T11:41:37;4.10;;;1.47;;
10059;SDS011;5069;49.306;8.636;2022-10-16T11:48:43;2.53;;;1.57;;
10059;SDS011;5069;49.306;8.636;2022-10-16T11:52:11;3.93;;;1.90;;
10059;SDS011;5069;49.306;8.636;2022-10-16T11:55:21;4.37;;;1.53;;
10059;SDS011;5069;49.306;8.636;2022-10-16T12:04:46;2.37;;;1.50;;
10059;SDS011;5069;49.306;8.636;2022-10-16T12:07:59;2.07;;;1.50;;
10059;SDS011;5069;49.306;8.636;2022-10-16T12:11:30;4.83;;;2.20;;
10059;SDS011;5069;49.306;8.636;2022-10-16T12:14:37;2.03;;;1.73;;
10059;SDS011;5069;49.306;8.636;2022-10-16T12:18:01;3.97;;;1.90;;
10059;SDS011;5069;49.306;8.636;2022-10-16T12:21:02;8.10;;;2.20;;
10059;SDS011;5069;49.306;8.636;2022-10-16T12:27:43;3.37;;;1.60;;
10059;SDS011;5069;49.306;8.636;2022-10-16T12:30:54;3.77;;;1.77;;
10059;SDS011;5069;49.306;8.636;2022-10-16T12:33:59;6.73;;;1.70;;
10059;SDS011;5069;49.306;8.636;2022-10-16T12:40:23;6.97;;;1.77;;
10059;SDS011;5069;49.306;8.636;2022-10-16T12:43:27;3.97;;;1.80;;
10059;SDS011;5069;49.306;8.636;2022-10-16T12:46:40;7.13;;;1.90;;
10059;SDS011;5069;49.306;8.636;2022-10-16T12:49:47;5.23;;;1.73;;
10059;SDS011;5069;49.306;8.636;2022-10-16T12:52:50;4.93;;;1.50;;
10059;SDS011;5069;49.306;8.636;2022-10-16T12:56:02;4.57;;;1.90;;
10059;SDS011;5069;49.306;8.636;2022-10-16T13:16:02;3.57;;;1.80;;
10059;SDS011;5069;49.306;8.636;2022-10-16T13:19:31;4.37;;;1.90;;
10059;SDS011;5069;49.306;8.636;2022-10-16T13:26:09;4.57;;;1.63;;
10059;SDS011;5069;49.306;8.636;2022-10-16T13:29:32;8.30;;;2.00;;
10059;SDS011;5069;49.306;8.636;2022-10-16T13:32:34;3.30;;;1.60;;
10059;SDS011;5069;49.306;8.636;2022-10-16T13:35:36;5.83;;;1.80;;
10059;SDS011;5069;49.306;8.636;2022-10-16T13:38:38;5.13;;;1.53;;
10059;SDS011;5069;49.306;8.636;2022-10-16T13:41:40;4.53;;;1.87;;
10059;SDS011;5069;49.306;8.636;2022-10-16T13:44:48;5.73;;;1.70;;
10059;SDS011;5069;49.306;8.636;2022-10-16T13:48:02;10.40;;;2.00;;
10059;SDS011;5069;49.306;8.636;2022-10-16T13:51:05;3.57;;;2.30;;
10059;SDS011;5069;49.306;8.636;2022-10-16T13:54:15;4.67;;;2.63;;
10059;SDS011;5069;49.306;8.636;2022-10-16T13:57:17;3.87;;;2.00;;
10059;SDS011;5069;49.306;8.636;2022-10-16T14:00:28;2.10;;;1.70;;
10059;SDS011;5069;49.306;8.636;2022-10-16T14:03:34;4.27;;;1.97;;
10059;SDS011;5069;49.306;8.636;2022-10-16T14:06:36;3.67;;;1.90;;
10059;SDS011;5069;49.306;8.636;2022-10-16T14:09:42;3.40;;;2.37;;
10059;SDS011;5069;49.306;8.636;2022-10-16T14:12:54;2.93;;;2.60;;
10059;SDS011;5069;49.306;8.636;2022-10-16T14:15:56;3.43;;;2.40;;
10059;SDS011;5069;49.306;8.636;2022-10-16T14:19:02;5.17;;;2.30;;
10059;SDS011;5069;49.306;8.636;2022-10-16T14:22:22;2.70;;;1.90;;
10059;SDS011;5069;49.306;8.636;2022-10-16T14:25:31;6.67;;;2.00;;
10059;SDS011;5069;49.306;8.636;2022-10-16T14:28:33;2.70;;;1.93;;
10059;SDS011;5069;49.306;8.636;2022-10-16T14:31:36;6.00;;;2.00;;
10059;SDS011;5069;49.306;8.636;2022-10-16T14:34:38;6.00;;;2.50;;
10059;SDS011;5069;49.306;8.636;2022-10-16T14:37:41;4.00;;;1.93;;
10059;SDS011;5069;49.306;8.636;2022-10-16T14:40:46;5.60;;;2.20;;
10059;SDS011;5069;49.306;8.636;2022-10-16T14:43:50;4.80;;;2.07;;
10059;SDS011;5069;49.306;8.636;2022-10-16T14:46:55;3.63;;;2.00;;
10059;SDS011;5069;49.306;8.636;2022-10-16T14:49:57;2.67;;;2.00;;
10059;SDS011;5069;49.306;8.636;2022-10-16T14:53:00;4.47;;;2.00;;
10059;SDS011;5069;49.306;8.636;2022-10-16T14:56:08;3.57;;;2.07;;
10059;SDS011;5069;49.306;8.636;2022-10-16T14:59:18;4.83;;;1.90;;
10059;SDS011;5069;49.306;8.636;2022-10-16T15:02:30;4.43;;;3.07;;
10059;SDS011;5069;49.306;8.636;2022-10-16T15:05:34;12.83;;;7.63;;
10059;SDS011;5069;49.306;8.636;2022-10-16T15:08:35;6.17;;;4.83;;
10059;SDS011;5069;49.306;8.636;2022-10-16T15:11:37;5.27;;;3.40;;
10059;SDS011;5069;49.306;8.636;2022-10-16T15:14:38;6.00;;;2.63;;
10059;SDS011;5069;49.306;8.636;2022-10-16T15:17:40;6.00;;;2.70;;
10059;SDS011;5069;49.306;8.636;2022-10-16T15:20:41;4.80;;;2.30;;
10059;SDS011;5069;49.306;8.636;2022-10-16T15:23:42;4.30;;;2.60;;
10059;SDS011;5069;49.306;8.636;2022-10-16T15:26:44;4.90;;;2.80;;
10059;SDS011;5069;49.306;8.636;2022-10-16T15:29:47;8.73;;;3.50;;
10059;SDS011;5069;49.306;8.636;2022-10-16T15:32:48;7.93;;;2.77;;
10059;SDS011;5069;49.306;8.636;2022-10-16T15:35:50;5.60;;;2.60;;
10059;SDS011;5069;49.306;8.636;2022-10-16T15:38:52;3.73;;;2.63;;
10059;SDS011;5069;49.306;8.636;2022-10-16T15:41:54;3.33;;;2.40;;
10059;SDS011;5069;49.306;8.636;2022-10-16T15:44:56;3.37;;;2.70;;
10059;SDS011;5069;49.306;8.636;2022-10-16T15:47:57;5.13;;;2.50;;
10059;SDS011;5069;49.306;8.636;2022-10-16T15:51:05;4.67;;;2.77;;
10059;SDS011;5069;49.306;8.636;2022-10-16T15:54:08;3.03;;;2.50;;
10059;SDS011;5069;49.306;8.636;2022-10-16T15:57:10;3.87;;;2.83;;
10059;SDS011;5069;49.306;8.636;2022-10-16T16:00:12;4.17;;;2.90;;
10059;SDS011;5069;49.306;8.636;2022-10-16T16:03:15;3.53;;;3.20;;
10059;SDS011;5069;49.306;8.636;2022-10-16T16:06:17;6.70;;;3.50;;
10059;SDS011;5069;49.306;8.636;2022-10-16T16:09:18;7.37;;;3.03;;
10059;SDS011;5069;49.306;8.636;2022-10-16T16:12:19;6.53;;;3.70;;
10059;SDS011;5069;49.306;8.636;2022-10-16T16:15:21;3.63;;;2.80;;
10059;SDS011;5069;49.306;8.636;2022-10-16T16:18:23;3.87;;;3.00;;
10059;SDS011;5069;49.306;8.636;2022-10-16T16:21:26;5.20;;;2.97;;
10059;SDS011;5069;49.306;8.636;2022-10-16T16:24:27;4.57;;;3.20;;
10059;SDS011;5069;49.306;8.636;2022-10-16T16:27:28;6.57;;;3.20;;
10059;SDS011;5069;49.306;8.636;2022-10-16T16:30:34;6.60;;;3.63;;
10059;SDS011;5069;49.306;8.636;2022-10-16T16:33:35;4.60;;;3.87;;
10059;SDS011;5069;49.306;8.636;2022-10-16T16:36:37;10.50;;;7.70;;
10059;SDS011;5069;49.306;8.636;2022-10-16T16:39:38;12.17;;;8.67;;
10059;SDS011;5069;49.306;8.636;2022-10-16T16:42:40;9.53;;;7.77;;
10059;SDS011;5069;49.306;8.636;2022-10-16T16:45:41;7.63;;;6.43;;
10059;SDS011;5069;49.306;8.636;2022-10-16T16:48:43;8.83;;;5.63;;
10059;SDS011;5069;49.306;8.636;2022-10-16T16:51:44;9.10;;;4.67;;
10059;SDS011;5069;49.306;8.636;2022-10-16T16:54:47;6.30;;;4.20;;
10059;SDS011;5069;49.306;8.636;2022-10-16T16:57:52;8.03;;;3.93;;
10059;SDS011;5069;49.306;8.636;2022-10-16T17:00:54;4.50;;;3.90;;
10059;SDS011;5069;49.306;8.636;2022-10-16T17:04:09;6.77;;;3.73;;
10059;SDS011;5069;49.306;8.636;2022-10-16T17:07:11;7.17;;;3.90;;
10059;SDS011;5069;49.306;8.636;2022-10-16T17:10:12;10.57;;;4.03;;
10059;SDS011;5069;49.306;8.636;2022-10-16T17:13:14;5.20;;;3.57;;
10059;SDS011;5069;49.306;8.636;2022-10-16T17:16:15;10.40;;;4.57;;
10059;SDS011;5069;49.306;8.636;2022-10-16T17:19:18;5.80;;;4.50;;
10059;SDS011;5069;49.306;8.636;2022-10-16T17:22:20;5.93;;;4.40;;
10059;SDS011;5069;49.306;8.636;2022-10-16T17:25:22;7.13;;;4.67;;
10059;SDS011;5069;49.306;8.636;2022-10-16T17:28:25;5.13;;;4.63;;
10059;SDS011;5069;49.306;8.636;2022-10-16T17:31:28;8.33;;;4.80;;
10059;SDS011;5069;49.306;8.636;2022-10-16T17:34:34;5.50;;;4.57;;
10059;SDS011;5069;49.306;8.636;2022-10-16T17:37:35;5.60;;;4.13;;
10059;SDS011;5069;49.306;8.636;2022-10-16T17:40:37;8.63;;;4.30;;
10059;SDS011;5069;49.306;8.636;2022-10-16T17:43:39;5.03;;;4.30;;
10059;SDS011;5069;49.306;8.636;2022-10-16T17:46:40;8.27;;;4.33;;
10059;SDS011;5069;49.306;8.636;2022-10-16T17:49:42;4.43;;;4.03;;
10059;SDS011;5069;49.306;8.636;2022-10-16T17:52:43;4.47;;;4.07;;
10059;SDS011;5069;49.306;8.636;2022-10-16T17:55:45;4.70;;;3.90;;
10059;SDS011;5069;49.306;8.636;2022-10-16T17:58:50;9.73;;;6.83;;
10059;SDS011;5069;49.306;8.636;2022-10-16T18:01:53;13.47;;;10.27;;
10059;SDS011;5069;49.306;8.636;2022-10-16T18:04:54;12.90;;;9.67;;
10059;SDS011;5069;49.306;8.636;2022-10-16T18:07:56;10.70;;;8.23;;
10059;SDS011;5069;49.306;8.636;2022-10-16T18:10:58;7.13;;;4.90;;
10059;SDS011;5069;49.306;8.636;2022-10-16T18:13:59;5.50;;;4.60;;
10059;SDS011;5069;49.306;8.636;2022-10-16T18:17:01;6.90;;;5.20;;
10059;SDS011;5069;49.306;8.636;2022-10-16T18:20:04;11.47;;;7.50;;
10059;SDS011;5069;49.306;8.636;2022-10-16T18:23:07;11.93;;;6.57;;
10059;SDS011;5069;49.306;8.636;2022-10-16T18:26:08;10.37;;;8.27;;
10059;SDS011;5069;49.306;8.636;2022-10-16T18:29:11;15.17;;;9.30;;
10059;SDS011;5069;49.306;8.636;2022-10-16T18:32:13;11.43;;;8.23;;
10059;SDS011;5069;49.306;8.636;2022-10-16T18:35:15;14.53;;;8.67;;
10059;SDS011;5069;49.306;8.636;2022-10-16T18:38:16;14.40;;;10.00;;
10059;SDS011;5069;49.306;8.636;2022-10-16T18:41:21;14.93;;;8.97;;
10059;SDS011;5069;49.306;8.636;2022-10-16T18:44:22;14.13;;;9.90;;
10059;SDS011;5069;49.306;8.636;2022-10-16T18:47:24;15.20;;;9.80;;
10059;SDS011;5069;49.306;8.636;2022-10-16T18:50:26;15.33;;;10.30;;
10059;SDS011;5069;49.306;8.636;2022-10-16T18:53:27;20.23;;;12.27;;
10059;SDS011;5069;49.306;8.636;2022-10-16T18:56:34;21.17;;;12.60;;
10059;SDS011;5069;49.306;8.636;2022-10-16T18:59:35;21.37;;;13.33;;
10059;SDS011;5069;49.306;8.636;2022-10-16T19:02:37;19.40;;;12.20;;
10059;SDS011;5069;49.306;8.636;2022-10-16T19:05:38;24.60;;;14.47;;
10059;SDS011;5069;49.306;8.636;2022-10-16T19:08:40;23.33;;;14.60;;
10059;SDS011;5069;49.306;8.636;2022-10-16T19:11:43;26.53;;;16.90;;
10059;SDS011;5069;49.306;8.636;2022-10-16T19:14:46;18.50;;;13.30;;
10059;SDS011;5069;49.306;8.636;2022-10-16T19:17:48;30.10;;;20.03;;
10059;SDS011;5069;49.306;8.636;2022-10-16T19:20:50;31.30;;;19.93;;
10059;SDS011;5069;49.306;8.636;2022-10-16T19:23:52;43.00;;;25.90;;
10059;SDS011;5069;49.306;8.636;2022-10-16T19:26:59;37.60;;;25.30;;
10059;SDS011;5069;49.306;8.636;2022-10-16T19:30:00;25.60;;;18.00;;
10059;SDS011;5069;49.306;8.636;2022-10-16T19:33:02;12.47;;;10.10;;
10059;SDS011;5069;49.306;8.636;2022-10-16T19:39:14;8.33;;;5.07;;
10059;SDS011;5069;49.306;8.636;2022-10-16T19:42:20;5.80;;;3.50;;
10059;SDS011;5069;49.306;8.636;2022-10-16T19:45:21;8.00;;;4.30;;
10059;SDS011;5069;49.306;8.636;2022-10-16T19:48:22;6.20;;;3.80;;
10059;SDS011;5069;49.306;8.636;2022-10-16T19:51:30;8.83;;;4.40;;
10059;SDS011;5069;49.306;8.636;2022-10-16T19:54:31;7.53;;;5.10;;
10059;SDS011;5069;49.306;8.636;2022-10-16T19:57:36;7.30;;;5.23;;
10059;SDS011;5069;49.306;8.636;2022-10-16T20:00:41;7.60;;;3.63;;
10059;SDS011;5069;49.306;8.636;2022-10-16T20:03:43;5.00;;;3.13;;
10059;SDS011;5069;49.306;8.636;2022-10-16T20:06:45;6.17;;;3.67;;
10059;SDS011;5069;49.306;8.636;2022-10-16T20:09:47;8.40;;;3.60;;
10059;SDS011;5069;49.306;8.636;2022-10-16T20:12:48;6.80;;;3.50;;
10059;SDS011;5069;49.306;8.636;2022-10-16T20:15:49;3.27;;;2.90;;
10059;SDS011;5069;49.306;8.636;2022-10-16T20:18:51;5.70;;;2.80;;
10059;SDS011;5069;49.306;8.636;2022-10-16T20:21:53;4.90;;;3.20;;
10059;SDS011;5069;49.306;8.636;2022-10-16T20:24:55;6.23;;;2.93;;
10059;SDS011;5069;49.306;8.636;2022-10-16T20:27:56;5.83;;;2.93;;
10059;SDS011;5069;49.306;8.636;2022-10-16T20:30:58;6.03;;;2.70;;
10059;SDS011;5069;49.306;8.636;2022-10-16T20:34:08;7.53;;;2.87;;